sensor_id;sensor_type;location;lat;lon;timestamp;pressure;altitude;pressure_sealevel;temperature;humidity
11487;BME280;10510;47.942;9.442;2022-12-29T00:00:10;94385.97;;;5.24;100.00
11487;BME280;10510;47.942;9.442;2022-12-29T00:02:11;94383.69;;;5.29;100.00
11487;BME280;10510;47.942;9.442;2022-12-29T00:04:13;94377.38;;;5.32;100.00
11487;BME280;10510;47.942;9.442;2022-12-29T00:06:14;94375.28;;;5.35;100.00
11487;BME280;10510;47.942;9.442;2022-12-29T00:08:14;94379.53;;;5.36;100.00
11487;BME280;10510;47.942;9.442;2022-12-29T00:10:14;94363.66;;;5.39;100.00
11487;BME280;10510;47.942;9.442;2022-12-29T00:12:15;94358.47;;;5.39;100.00
11487;BME280;10510;47.942;9.442;2022-12-29T00:14:15;94353.94;;;5.41;100.00
11487;BME280;10510;47.942;9.442;2022-12-29T00:16:35;94364.47;;;5.40;100.00
11487;BME280;10510;47.942;9.442;2022-12-29T00:18:36;94358.47;;;5.39;100.00
11487;BME280;10510;47.942;9.442;2022-12-29T00:20:37;94357.50;;;5.40;100.00
11487;BME280;10510;47.942;9.442;2022-12-29T00:23:16;94353.63;;;5.44;100.00
11487;BME280;10510;47.942;9.442;2022-12-29T00:25:35;94355.38;;;5.44;100.00
11487;BME280;10510;47.942;9.442;2022-12-29T00:27:54;94357.84;;;5.45;100.00
11487;BME280;10510;47.942;9.442;2022-12-29T00:30:23;94359.63;;;5.45;100.00
11487;BME280;10510;47.942;9.442;2022-12-29T00:32:42;94363.00;;;5.45;100.00
11487;BME280;10510;47.942;9.442;2022-12-29T00:35:00;94357.03;;;5.45;100.00
11487;BME280;10510;47.942;9.442;2022-12-29T00:37:09;94360.25;;;5.47;100.00
11487;BME280;10510;47.942;9.442;2022-12-29T00:39:12;94345.84;;;5.53;100.00
11487;BME280;10510;47.942;9.442;2022-12-29T00:41:32;94348.94;;;5.56;100.00
11487;BME280;10510;47.942;9.442;2022-12-29T00:43:51;94351.38;;;5.58;100.00
11487;BME280;10510;47.942;9.442;2022-12-29T00:46:09;94351.22;;;5.59;100.00
11487;BME280;10510;47.942;9.442;2022-12-29T00:48:09;94341.81;;;5.58;100.00
11487;BME280;10510;47.942;9.442;2022-12-29T00:50:10;94352.97;;;5.59;100.00
11487;BME280;10510;47.942;9.442;2022-12-29T00:52:12;94347.78;;;5.59;100.00
11487;BME280;10510;47.942;9.442;2022-12-29T00:54:13;94343.44;;;5.59;100.00
11487;BME280;10510;47.942;9.442;2022-12-29T00:56:14;94344.25;;;5.60;100.00
11487;BME280;10510;47.942;9.442;2022-12-29T00:58:14;94340.69;;;5.61;100.00
11487;BME280;10510;47.942;9.442;2022-12-29T01:00:14;94341.03;;;5.66;100.00
11487;BME280;10510;47.942;9.442;2022-12-29T01:02:14;94335.50;;;5.69;100.00
11487;BME280;10510;47.942;9.442;2022-12-29T01:04:15;94331.63;;;5.73;100.00
11487;BME280;10510;47.942;9.442;2022-12-29T01:06:15;94333.88;;;5.76;100.00
11487;BME280;10510;47.942;9.442;2022-12-29T01:08:15;94337.13;;;5.78;100.00
11487;BME280;10510;47.942;9.442;2022-12-29T01:10:16;94332.59;;;5.80;100.00
11487;BME280;10510;47.942;9.442;2022-12-29T01:12:16;94342.00;;;5.81;100.00
11487;BME280;10510;47.942;9.442;2022-12-29T01:14:18;94336.81;;;5.81;100.00
11487;BME280;10510;47.942;9.442;2022-12-29T01:16:18;94341.03;;;5.82;100.00
11487;BME280;10510;47.942;9.442;2022-12-29T01:18:19;94341.69;;;5.84;100.00
11487;BME280;10510;47.942;9.442;2022-12-29T01:20:20;94339.75;;;5.86;100.00
11487;BME280;10510;47.942;9.442;2022-12-29T01:22:20;94342.16;;;5.88;100.00
11487;BME280;10510;47.942;9.442;2022-12-29T01:24:21;94337.47;;;5.91;100.00
11487;BME280;10510;47.942;9.442;2022-12-29T01:26:21;94335.41;;;5.95;100.00
11487;BME280;10510;47.942;9.442;2022-12-29T01:28:22;94346.13;;;6.00;100.00
11487;BME280;10510;47.942;9.442;2022-12-29T01:30:22;94342.22;;;6.04;100.00
11487;BME280;10510;47.942;9.442;2022-12-29T01:32:22;94339.44;;;6.06;100.00
11487;BME280;10510;47.942;9.442;2022-12-29T01:34:23;94350.31;;;6.09;100.00
11487;BME280;10510;47.942;9.442;2022-12-29T01:36:23;94337.03;;;6.12;100.00
11487;BME280;10510;47.942;9.442;2022-12-29T01:38:23;94341.56;;;6.19;100.00
11487;BME280;10510;47.942;9.442;2022-12-29T01:40:24;94337.03;;;6.21;100.00
11487;BME280;10510;47.942;9.442;2022-12-29T01:42:25;94333.91;;;6.25;100.00
11487;BME280;10510;47.942;9.442;2022-12-29T01:44:47;94340.72;;;6.26;100.00
11487;BME280;10510;47.942;9.442;2022-12-29T01:46:49;94342.38;;;6.27;100.00
11487;BME280;10510;47.942;9.442;2022-12-29T01:49:15;94343.81;;;6.30;100.00
11487;BME280;10510;47.942;9.442;2022-12-29T01:51:14;94344.78;;;6.37;100.00
11487;BME280;10510;47.942;9.442;2022-12-29T01:53:21;94342.97;;;6.37;100.00
11487;BME280;10510;47.942;9.442;2022-12-29T01:55:26;94353.38;;;6.37;100.00
11487;BME280;10510;47.942;9.442;2022-12-29T01:57:33;94348.81;;;6.40;100.00
11487;BME280;10510;47.942;9.442;2022-12-29T01:59:38;94344.63;;;6.39;100.00
11487;BME280;10510;47.942;9.442;2022-12-29T02:01:39;94342.97;;;6.37;100.00
11487;BME280;10510;47.942;9.442;2022-12-29T02:03:40;94348.34;;;6.36;100.00
11487;BME280;10510;47.942;9.442;2022-12-29T02:07:41;94345.56;;;6.37;100.00
11487;BME280;10510;47.942;9.442;2022-12-29T02:09:42;94342.84;;;6.39;100.00
11487;BME280;10510;47.942;9.442;2022-12-29T02:11:43;94349.81;;;6.39;100.00
11487;BME280;10510;47.942;9.442;2022-12-29T02:13:43;94337.00;;;6.37;100.00
11487;BME280;10510;47.942;9.442;2022-12-29T02:20:55;94340.84;;;6.49;100.00
11487;BME280;10510;47.942;9.442;2022-12-29T02:23:10;94332.44;;;6.47;100.00
11487;BME280;10510;47.942;9.442;2022-12-29T02:28:09;94336.97;;;6.45;100.00
11487;BME280;10510;47.942;9.442;2022-12-29T02:30:43;94326.75;;;6.44;100.00
11487;BME280;10510;47.942;9.442;2022-12-29T02:37:31;94328.06;;;6.40;100.00
11487;BME280;10510;47.942;9.442;2022-12-29T02:42:24;94328.06;;;6.40;100.00
11487;BME280;10510;47.942;9.442;2022-12-29T02:44:50;94328.06;;;6.40;100.00
11487;BME280;10510;47.942;9.442;2022-12-29T02:49:15;94319.13;;;6.42;100.00
11487;BME280;10510;47.942;9.442;2022-12-29T02:51:25;94312.31;;;6.41;100.00
11487;BME280;10510;47.942;9.442;2022-12-29T02:53:28;94307.94;;;6.42;100.00
11487;BME280;10510;47.942;9.442;2022-12-29T02:55:49;94318.97;;;6.44;100.00
11487;BME280;10510;47.942;9.442;2022-12-29T02:58:17;94315.75;;;6.42;100.00
11487;BME280;10510;47.942;9.442;2022-12-29T03:00:18;94310.69;;;6.40;100.00
11487;BME280;10510;47.942;9.442;2022-12-29T03:07:37;94314.09;;;6.41;100.00
11487;BME280;10510;47.942;9.442;2022-12-29T03:09:52;94307.94;;;6.42;100.00
11487;BME280;10510;47.942;9.442;2022-12-29T03:14:32;94297.91;;;6.39;100.00
11487;BME280;10510;47.942;9.442;2022-12-29T03:17:02;94301.44;;;6.37;100.00
11487;BME280;10510;47.942;9.442;2022-12-29T03:19:10;94302.25;;;6.38;100.00
11487;BME280;10510;47.942;9.442;2022-12-29T03:21:19;94299.19;;;6.34;100.00
11487;BME280;10510;47.942;9.442;2022-12-29T03:23:45;94303.75;;;6.32;100.00
11487;BME280;10510;47.942;9.442;2022-12-29T03:25:55;94303.25;;;6.29;100.00
11487;BME280;10510;47.942;9.442;2022-12-29T03:28:00;94305.38;;;6.25;100.00
11487;BME280;10510;47.942;9.442;2022-12-29T03:30:03;94292.72;;;6.22;100.00
11487;BME280;10510;47.942;9.442;2022-12-29T03:32:05;94296.47;;;6.20;100.00
11487;BME280;10510;47.942;9.442;2022-12-29T03:34:07;94290.47;;;6.19;100.00
11487;BME280;10510;47.942;9.442;2022-12-29T03:36:12;94286.41;;;6.17;100.00
11487;BME280;10510;47.942;9.442;2022-12-29T03:38:18;94286.41;;;6.17;100.00
11487;BME280;10510;47.942;9.442;2022-12-29T03:40:20;94290.13;;;6.14;100.00
11487;BME280;10510;47.942;9.442;2022-12-29T03:42:24;94289.34;;;6.13;100.00
11487;BME280;10510;47.942;9.442;2022-12-29T03:44:36;94294.53;;;6.13;100.00
11487;BME280;10510;47.942;9.442;2022-12-29T03:46:37;94296.31;;;6.13;100.00
11487;BME280;10510;47.942;9.442;2022-12-29T03:48:37;94293.72;;;6.13;100.00
11487;BME280;10510;47.942;9.442;2022-12-29T03:50:38;94299.22;;;6.10;100.00
11487;BME280;10510;47.942;9.442;2022-12-29T03:52:38;94290.97;;;6.06;100.00
11487;BME280;10510;47.942;9.442;2022-12-29T03:54:39;94292.72;;;6.06;100.00
11487;BME280;10510;47.942;9.442;2022-12-29T03:56:39;94294.38;;;6.07;100.00
11487;BME280;10510;47.942;9.442;2022-12-29T03:58:39;94292.72;;;6.06;100.00
11487;BME280;10510;47.942;9.442;2022-12-29T04:00:40;94295.66;;;6.03;100.00
11487;BME280;10510;47.942;9.442;2022-12-29T04:02:40;94299.41;;;6.00;100.00
11487;BME280;10510;47.942;9.442;2022-12-29T04:04:40;94299.41;;;6.00;100.00
11487;BME280;10510;47.942;9.442;2022-12-29T04:06:41;94293.91;;;5.95;100.00
11487;BME280;10510;47.942;9.442;2022-12-29T04:08:41;94283.00;;;5.91;100.00
11487;BME280;10510;47.942;9.442;2022-12-29T04:10:41;94285.09;;;5.88;100.00
11487;BME280;10510;47.942;9.442;2022-12-29T04:12:41;94285.28;;;5.86;100.00
11487;BME280;10510;47.942;9.442;2022-12-29T04:14:42;94279.09;;;5.87;100.00
11487;BME280;10510;47.942;9.442;2022-12-29T04:16:42;94274.91;;;5.86;100.00
11487;BME280;10510;47.942;9.442;2022-12-29T04:18:42;94282.03;;;5.84;100.00
11487;BME280;10510;47.942;9.442;2022-12-29T04:20:44;94284.63;;;5.84;100.00
11487;BME280;10510;47.942;9.442;2022-12-29T04:23:03;94281.69;;;5.87;100.00
11487;BME280;10510;47.942;9.442;2022-12-29T04:25:04;94283.97;;;5.90;100.00
11487;BME280;10510;47.942;9.442;2022-12-29T04:27:04;94275.22;;;5.91;100.00
11487;BME280;10510;47.942;9.442;2022-12-29T04:29:04;94281.22;;;5.92;100.00
11487;BME280;10510;47.942;9.442;2022-12-29T04:31:05;94276.19;;;5.90;100.00
11487;BME280;10510;47.942;9.442;2022-12-29T04:33:06;94276.19;;;5.90;100.00
11487;BME280;10510;47.942;9.442;2022-12-29T04:35:07;94273.91;;;5.87;100.00
11487;BME280;10510;47.942;9.442;2022-12-29T04:37:07;94278.63;;;5.84;100.00
11487;BME280;10510;47.942;9.442;2022-12-29T04:39:07;94263.22;;;5.82;100.00
11487;BME280;10510;47.942;9.442;2022-12-29T04:41:08;94263.06;;;5.84;100.00
11487;BME280;10510;47.942;9.442;2022-12-29T04:43:08;94253.69;;;5.83;100.00
11487;BME280;10510;47.942;9.442;2022-12-29T04:45:09;94262.25;;;5.83;100.00
11487;BME280;10510;47.942;9.442;2022-12-29T04:47:09;94258.03;;;5.82;100.00
11487;BME280;10510;47.942;9.442;2022-12-29T04:49:10;94263.22;;;5.82;100.00
11487;BME280;10510;47.942;9.442;2022-12-29T04:51:10;94257.22;;;5.82;100.00
11487;BME280;10510;47.942;9.442;2022-12-29T04:53:10;94265.81;;;5.82;100.00
11487;BME280;10510;47.942;9.442;2022-12-29T04:55:10;94261.28;;;5.84;100.00
11487;BME280;10510;47.942;9.442;2022-12-29T04:57:11;94269.06;;;5.84;100.00
11487;BME280;10510;47.942;9.442;2022-12-29T04:59:11;94265.81;;;5.82;100.00
11487;BME280;10510;47.942;9.442;2022-12-29T05:01:11;94267.91;;;5.79;100.00
11487;BME280;10510;47.942;9.442;2022-12-29T05:03:12;94272.31;;;5.78;100.00
11487;BME280;10510;47.942;9.442;2022-12-29T05:05:12;94269.06;;;5.76;100.00
11487;BME280;10510;47.942;9.442;2022-12-29T05:07:12;94269.06;;;5.76;100.00
11487;BME280;10510;47.942;9.442;2022-12-29T05:09:13;94276.69;;;5.78;100.00
11487;BME280;10510;47.942;9.442;2022-12-29T05:11:13;94274.25;;;5.76;100.00
11487;BME280;10510;47.942;9.442;2022-12-29T05:13:13;94284.63;;;5.76;100.00
11487;BME280;10510;47.942;9.442;2022-12-29T05:15:14;94276.84;;;5.76;100.00
11487;BME280;10510;47.942;9.442;2022-12-29T05:17:14;94282.19;;;5.75;100.00
11487;BME280;10510;47.942;9.442;2022-12-29T05:19:14;94279.94;;;5.72;100.00
11487;BME280;10510;47.942;9.442;2022-12-29T05:21:15;94276.69;;;5.69;100.00
11487;BME280;10510;47.942;9.442;2022-12-29T05:23:15;94278.28;;;5.70;100.00
11487;BME280;10510;47.942;9.442;2022-12-29T05:25:16;94280.72;;;5.72;100.00
11487;BME280;10510;47.942;9.442;2022-12-29T05:27:16;94279.75;;;5.73;100.00
11487;BME280;10510;47.942;9.442;2022-12-29T05:29:16;94278.13;;;5.72;100.00
11487;BME280;10510;47.942;9.442;2022-12-29T05:31:17;94285.13;;;5.72;100.00
11487;BME280;10510;47.942;9.442;2022-12-29T05:33:18;94283.81;;;5.67;100.00
11487;BME280;10510;47.942;9.442;2022-12-29T05:35:19;94288.84;;;5.69;100.00
11487;BME280;10510;47.942;9.442;2022-12-29T05:37:19;94278.47;;;5.69;100.00
11487;BME280;10510;47.942;9.442;2022-12-29T05:39:19;94292.09;;;5.71;100.00
11487;BME280;10510;47.942;9.442;2022-12-29T05:41:20;94286.25;;;5.69;100.00
11487;BME280;10510;47.942;9.442;2022-12-29T05:43:20;94280.41;;;5.67;100.00
11487;BME280;10510;47.942;9.442;2022-12-29T05:45:20;94292.56;;;5.66;100.00
11487;BME280;10510;47.942;9.442;2022-12-29T05:47:21;94294.50;;;5.64;100.00
11487;BME280;10510;47.942;9.442;2022-12-29T05:49:21;94279.59;;;5.66;100.00
11487;BME280;10510;47.942;9.442;2022-12-29T05:51:21;94282.66;;;5.70;100.00
11487;BME280;10510;47.942;9.442;2022-12-29T05:53:21;94291.44;;;5.69;100.00
11487;BME280;10510;47.942;9.442;2022-12-29T05:55:22;94289.31;;;5.64;100.00
11487;BME280;10510;47.942;9.442;2022-12-29T05:57:22;94300.00;;;5.61;100.00
11487;BME280;10510;47.942;9.442;2022-12-29T05:59:22;94293.06;;;5.62;100.00
11487;BME280;10510;47.942;9.442;2022-12-29T06:01:22;94299.53;;;5.66;100.00
11487;BME280;10510;47.942;9.442;2022-12-29T06:03:23;94312.19;;;5.69;100.00
11487;BME280;10510;47.942;9.442;2022-12-29T06:05:23;94307.97;;;5.68;100.00
11487;BME280;10510;47.942;9.442;2022-12-29T06:07:23;94310.56;;;5.68;100.00
11487;BME280;10510;47.942;9.442;2022-12-29T06:09:23;94311.38;;;5.68;100.00
11487;BME280;10510;47.942;9.442;2022-12-29T06:11:24;94310.25;;;5.71;100.00
11487;BME280;10510;47.942;9.442;2022-12-29T06:13:24;94307.66;;;5.71;100.00
11487;BME280;10510;47.942;9.442;2022-12-29T06:15:24;94312.19;;;5.69;100.00
11487;BME280;10510;47.942;9.442;2022-12-29T06:17:25;94317.34;;;5.69;100.00
11487;BME280;10510;47.942;9.442;2022-12-29T06:19:25;94313.97;;;5.68;100.00
11487;BME280;10510;47.942;9.442;2022-12-29T06:21:25;94311.50;;;5.67;100.00
11487;BME280;10510;47.942;9.442;2022-12-29T06:23:26;94317.34;;;5.69;100.00
11487;BME280;10510;47.942;9.442;2022-12-29T06:25:26;94328.72;;;5.68;100.00
11487;BME280;10510;47.942;9.442;2022-12-29T06:27:26;94329.03;;;5.65;100.00
11487;BME280;10510;47.942;9.442;2022-12-29T06:29:26;94330.16;;;5.62;100.00
11487;BME280;10510;47.942;9.442;2022-12-29T06:31:27;94325.47;;;5.66;100.00
11487;BME280;10510;47.942;9.442;2022-12-29T06:33:28;94324.81;;;5.72;100.00
11487;BME280;10510;47.942;9.442;2022-12-29T06:35:28;94319.47;;;5.74;100.00
11487;BME280;10510;47.942;9.442;2022-12-29T06:37:29;94319.31;;;5.75;100.00
11487;BME280;10510;47.942;9.442;2022-12-29T06:39:29;94323.19;;;5.79;100.00
11487;BME280;10510;47.942;9.442;2022-12-29T06:41:29;94300.03;;;5.78;100.00
11487;BME280;10510;47.942;9.442;2022-12-29T06:43:30;94300.34;;;5.75;100.00
11487;BME280;10510;47.942;9.442;2022-12-29T06:45:30;94304.88;;;5.73;100.00
11487;BME280;10510;47.942;9.442;2022-12-29T06:47:30;94307.00;;;5.77;100.00
11487;BME280;10510;47.942;9.442;2022-12-29T06:49:31;94307.47;;;5.81;100.00
11487;BME280;10510;47.942;9.442;2022-12-29T06:51:31;94304.88;;;5.81;100.00
11487;BME280;10510;47.942;9.442;2022-12-29T06:53:31;94305.69;;;5.81;100.00
11487;BME280;10510;47.942;9.442;2022-12-29T06:55:31;94309.91;;;5.82;100.00
11487;BME280;10510;47.942;9.442;2022-12-29T06:57:32;94301.81;;;5.85;100.00
11487;BME280;10510;47.942;9.442;2022-12-29T06:59:32;94305.69;;;5.89;100.00
11487;BME280;10510;47.942;9.442;2022-12-29T07:01:32;94303.91;;;5.90;100.00
11487;BME280;10510;47.942;9.442;2022-12-29T07:03:33;94308.13;;;5.91;100.00
11487;BME280;10510;47.942;9.442;2022-12-29T07:05:33;94305.69;;;5.89;100.00
11487;BME280;10510;47.942;9.442;2022-12-29T07:07:33;94314.13;;;5.91;100.00
11487;BME280;10510;47.942;9.442;2022-12-29T07:09:33;94307.66;;;5.96;100.00
11487;BME280;10510;47.942;9.442;2022-12-29T07:11:34;94321.31;;;5.98;100.00
11487;BME280;10510;47.942;9.442;2022-12-29T07:13:34;94308.34;;;5.98;100.00
11487;BME280;10510;47.942;9.442;2022-12-29T07:15:36;94315.31;;;5.97;100.00
11487;BME280;10510;47.942;9.442;2022-12-29T07:17:36;94313.50;;;5.98;100.00
11487;BME280;10510;47.942;9.442;2022-12-29T07:19:37;94319.34;;;6.00;100.00
11487;BME280;10510;47.942;9.442;2022-12-29T07:21:37;94322.91;;;5.99;100.00
11487;BME280;10510;47.942;9.442;2022-12-29T07:23:37;94326.63;;;5.96;100.00
11487;BME280;10510;47.942;9.442;2022-12-29T07:25:38;94322.44;;;5.95;100.00
11487;BME280;10510;47.942;9.442;2022-12-29T07:27:40;94322.44;;;5.95;100.00
11487;BME280;10510;47.942;9.442;2022-12-29T07:29:40;94328.91;;;5.99;100.00
11487;BME280;10510;47.942;9.442;2022-12-29T07:31:40;94320.16;;;6.00;100.00
11487;BME280;10510;47.942;9.442;2022-12-29T07:33:41;94320.16;;;6.00;100.00
11487;BME280;10510;47.942;9.442;2022-12-29T07:35:41;94326.16;;;6.01;100.00
11487;BME280;10510;47.942;9.442;2022-12-29T07:37:41;94325.84;;;6.04;100.00
11487;BME280;10510;47.942;9.442;2022-12-29T07:39:41;94328.25;;;6.05;100.00
11487;BME280;10510;47.942;9.442;2022-12-29T07:41:42;94321.28;;;6.06;100.00
11487;BME280;10510;47.942;9.442;2022-12-29T07:43:46;94320.31;;;6.07;100.00
11487;BME280;10510;47.942;9.442;2022-12-29T07:45:47;94321.94;;;6.08;100.00
11487;BME280;10510;47.942;9.442;2022-12-29T07:47:49;94321.94;;;6.08;100.00
11487;BME280;10510;47.942;9.442;2022-12-29T07:49:50;94317.72;;;6.07;100.00
11487;BME280;10510;47.942;9.442;2022-12-29T07:51:50;94332.31;;;6.08;100.00
11487;BME280;10510;47.942;9.442;2022-12-29T07:53:50;94320.97;;;6.09;100.00
11487;BME280;10510;47.942;9.442;2022-12-29T07:55:51;94326.63;;;6.12;100.00
11487;BME280;10510;47.942;9.442;2022-12-29T07:57:54;94328.91;;;6.16;100.00
11487;BME280;10510;47.942;9.442;2022-12-29T07:59:55;94323.53;;;6.17;100.00
11487;BME280;10510;47.942;9.442;2022-12-29T08:01:55;94315.59;;;6.19;100.00
11487;BME280;10510;47.942;9.442;2022-12-29T08:03:55;94311.88;;;6.21;100.00
11487;BME280;10510;47.942;9.442;2022-12-29T08:05:56;94324.19;;;6.27;100.00
11487;BME280;10510;47.942;9.442;2022-12-29T08:07:57;94322.88;;;6.31;100.00
11487;BME280;10510;47.942;9.442;2022-12-29T08:09:57;94336.50;;;6.33;100.00
11487;BME280;10510;47.942;9.442;2022-12-29T08:11:57;94333.72;;;6.35;100.00
11487;BME280;10510;47.942;9.442;2022-12-29T08:13:58;94334.88;;;6.41;100.00
11487;BME280;10510;47.942;9.442;2022-12-29T08:15:58;94337.13;;;6.44;100.00
11487;BME280;10510;47.942;9.442;2022-12-29T08:17:59;94347.38;;;6.45;100.00
11487;BME280;10510;47.942;9.442;2022-12-29T08:19:59;94355.63;;;6.49;100.00
11487;BME280;10510;47.942;9.442;2022-12-29T08:21:59;94360.50;;;6.52;100.00
11487;BME280;10510;47.942;9.442;2022-12-29T08:23:59;94358.56;;;6.54;100.00
11487;BME280;10510;47.942;9.442;2022-12-29T08:26:04;94356.59;;;6.56;100.00
11487;BME280;10510;47.942;9.442;2022-12-29T08:28:05;94357.88;;;6.60;100.00
11487;BME280;10510;47.942;9.442;2022-12-29T08:30:06;94366.34;;;6.62;100.00
11487;BME280;10510;47.942;9.442;2022-12-29T08:32:06;94355.59;;;6.65;100.00
11487;BME280;10510;47.942;9.442;2022-12-29T08:34:07;94359.34;;;6.71;100.00
11487;BME280;10510;47.942;9.442;2022-12-29T08:36:07;94351.81;;;6.76;100.00
11487;BME280;10510;47.942;9.442;2022-12-29T08:38:08;94351.50;;;6.79;100.00
11487;BME280;10510;47.942;9.442;2022-12-29T08:40:09;94350.19;;;6.83;100.00
11487;BME280;10510;47.942;9.442;2022-12-29T08:42:09;94353.28;;;6.87;100.00
11487;BME280;10510;47.942;9.442;2022-12-29T08:44:09;94353.75;;;6.90;100.00
11487;BME280;10510;47.942;9.442;2022-12-29T08:46:10;94361.84;;;6.95;100.00
11487;BME280;10510;47.942;9.442;2022-12-29T08:48:10;94368.31;;;6.99;100.00
11487;BME280;10510;47.942;9.442;2022-12-29T08:50:10;94366.03;;;7.04;100.00
11487;BME280;10510;47.942;9.442;2022-12-29T08:52:11;94363.75;;;7.10;100.00
11487;BME280;10510;47.942;9.442;2022-12-29T08:54:11;94378.81;;;7.14;100.00
11487;BME280;10510;47.942;9.442;2022-12-29T08:56:11;94367.13;;;7.18;100.00
11487;BME280;10510;47.942;9.442;2022-12-29T08:58:11;94368.41;;;7.22;100.00
11487;BME280;10510;47.942;9.442;2022-12-29T09:00:14;94379.13;;;7.27;100.00
11487;BME280;10510;47.942;9.442;2022-12-29T09:02:15;94380.22;;;7.33;100.00
11487;BME280;10510;47.942;9.442;2022-12-29T09:04:15;94385.56;;;7.40;100.00
11487;BME280;10510;47.942;9.442;2022-12-29T09:06:16;94383.06;;;7.46;100.00
11487;BME280;10510;47.942;9.442;2022-12-29T09:08:17;94373.44;;;7.55;100.00
11487;BME280;10510;47.942;9.442;2022-12-29T09:10:18;94392.59;;;7.62;100.00
11487;BME280;10510;47.942;9.442;2022-12-29T09:12:18;94380.72;;;7.68;100.00
11487;BME280;10510;47.942;9.442;2022-12-29T09:14:19;94386.19;;;7.73;100.00
11487;BME280;10510;47.942;9.442;2022-12-29T09:16:22;94392.69;;;7.77;100.00
11487;BME280;10510;47.942;9.442;2022-12-29T09:18:23;94395.56;;;7.82;100.00
11487;BME280;10510;47.942;9.442;2022-12-29T09:20:23;94384.84;;;7.85;100.00
11487;BME280;10510;47.942;9.442;2022-12-29T09:22:24;94385.91;;;7.91;100.00
11487;BME280;10510;47.942;9.442;2022-12-29T09:24:24;94390.41;;;7.97;100.00
11487;BME280;10510;47.942;9.442;2022-12-29T09:26:24;94393.50;;;8.01;100.00
11487;BME280;10510;47.942;9.442;2022-12-29T09:28:25;94376.41;;;8.06;100.00
11487;BME280;10510;47.942;9.442;2022-12-29T09:30:25;94388.72;;;8.12;100.00
11487;BME280;10510;47.942;9.442;2022-12-29T09:32:25;94383.41;;;8.20;100.00
11487;BME280;10510;47.942;9.442;2022-12-29T09:34:26;94389.22;;;8.31;100.00
11487;BME280;10510;47.942;9.442;2022-12-29T09:36:26;94390.31;;;8.36;100.00
11487;BME280;10510;47.942;9.442;2022-12-29T09:38:27;94394.66;;;8.44;100.00
11487;BME280;10510;47.942;9.442;2022-12-29T09:40:30;94384.88;;;8.46;100.00
11487;BME280;10510;47.942;9.442;2022-12-29T09:46:55;94382.38;;;8.53;100.00
11487;BME280;10510;47.942;9.442;2022-12-29T09:51:28;94379.31;;;8.49;100.00
11487;BME280;10510;47.942;9.442;2022-12-29T09:53:33;94371.50;;;8.49;100.00
11487;BME280;10510;47.942;9.442;2022-12-29T09:55:42;94370.69;;;8.49;100.00
11487;BME280;10510;47.942;9.442;2022-12-29T09:58:04;94376.34;;;8.52;100.00
11487;BME280;10510;47.942;9.442;2022-12-29T10:00:14;94362.81;;;8.57;100.00
11487;BME280;10510;47.942;9.442;2022-12-29T10:02:26;94370.44;;;8.58;100.00
11487;BME280;10510;47.942;9.442;2022-12-29T10:04:29;94359.06;;;8.59;100.00
11487;BME280;10510;47.942;9.442;2022-12-29T10:06:53;94377.72;;;8.63;100.00
11487;BME280;10510;47.942;9.442;2022-12-29T10:09:14;94368.13;;;8.63;100.00
11487;BME280;10510;47.942;9.442;2022-12-29T10:16:28;94359.50;;;8.63;100.00
11487;BME280;10510;47.942;9.442;2022-12-29T10:19:16;94372.53;;;8.63;100.00
11487;BME280;10510;47.942;9.442;2022-12-29T10:26:09;94353.47;;;8.62;100.00
11487;BME280;10510;47.942;9.442;2022-12-29T10:28:19;94347.28;;;8.63;100.00
11487;BME280;10510;47.942;9.442;2022-12-29T10:30:20;94350.53;;;8.66;100.00
11487;BME280;10510;47.942;9.442;2022-12-29T10:32:32;94342.72;;;8.66;100.00
11487;BME280;10510;47.942;9.442;2022-12-29T10:34:43;94338.94;;;8.68;100.00
11487;BME280;10510;47.942;9.442;2022-12-29T10:36:48;94322.47;;;8.68;100.00
11487;BME280;10510;47.942;9.442;2022-12-29T10:38:57;94324.91;;;8.69;100.00
11487;BME280;10510;47.942;9.442;2022-12-29T10:41:21;94318.34;;;8.73;100.00
11487;BME280;10510;47.942;9.442;2022-12-29T10:43:31;94311.72;;;8.71;100.00
11487;BME280;10510;47.942;9.442;2022-12-29T10:45:33;94303.53;;;8.74;100.00
11487;BME280;10510;47.942;9.442;2022-12-29T10:47:38;94307.56;;;8.76;100.00
11487;BME280;10510;47.942;9.442;2022-12-29T10:49:45;94315.38;;;8.76;100.00
11487;BME280;10510;47.942;9.442;2022-12-29T10:51:48;94298.59;;;8.79;100.00
11487;BME280;10510;47.942;9.442;2022-12-29T10:53:55;94300.59;;;8.77;100.00
11487;BME280;10510;47.942;9.442;2022-12-29T10:55:59;94307.41;;;8.78;100.00
11487;BME280;10510;47.942;9.442;2022-12-29T10:58:03;94301.19;;;8.79;100.00
11487;BME280;10510;47.942;9.442;2022-12-29T11:00:19;94298.59;;;8.79;100.00
11487;BME280;10510;47.942;9.442;2022-12-29T11:06:43;94300.38;;;8.78;100.00
11487;BME280;10510;47.942;9.442;2022-12-29T11:08:55;94298.78;;;8.77;100.00
11487;BME280;10510;47.942;9.442;2022-12-29T11:10:59;94299.59;;;8.78;100.00
11487;BME280;10510;47.942;9.442;2022-12-29T11:13:03;94305.59;;;8.78;100.00
11487;BME280;10510;47.942;9.442;2022-12-29T11:17:15;94310.66;;;8.80;100.00
11487;BME280;10510;47.942;9.442;2022-12-29T11:19:24;94308.84;;;8.80;100.00
11487;BME280;10510;47.942;9.442;2022-12-29T11:21:38;94316.28;;;8.83;100.00
11487;BME280;10510;47.942;9.442;2022-12-29T11:23:41;94316.28;;;8.83;100.00
11487;BME280;10510;47.942;9.442;2022-12-29T11:25:42;94302.91;;;8.86;100.00
11487;BME280;10510;47.942;9.442;2022-12-29T11:28:13;94316.22;;;8.92;100.00
11487;BME280;10510;47.942;9.442;2022-12-29T11:30:26;94318.44;;;8.95;100.00
11487;BME280;10510;47.942;9.442;2022-12-29T11:32:28;94317.28;;;8.97;100.00
11487;BME280;10510;47.942;9.442;2022-12-29T11:34:33;94310.06;;;8.99;100.00
11487;BME280;10510;47.942;9.442;2022-12-29T11:36:35;94312.50;;;9.01;100.00
11487;BME280;10510;47.942;9.442;2022-12-29T11:38:39;94306.31;;;9.02;100.00
11487;BME280;10510;47.942;9.442;2022-12-29T11:40:40;94296.69;;;9.02;100.00
11487;BME280;10510;47.942;9.442;2022-12-29T11:42:55;94297.31;;;9.04;100.00
11487;BME280;10510;47.942;9.442;2022-12-29T11:45:04;94297.59;;;9.09;100.00